sensor_id;sensor_type;location;lat;lon;timestamp;P1;durP1;ratioP1;P2;durP2;ratioP2
74967;SDS011;63523;51.880;12.630;2024-01-15T00:01:35;18.13;;;5.90;;
74967;SDS011;63523;51.880;12.630;2024-01-15T00:04:00;16.35;;;6.07;;
74967;SDS011;63523;51.880;12.630;2024-01-15T00:06:25;18.33;;;5.43;;
74967;SDS011;63523;51.880;12.630;2024-01-15T00:08:52;17.85;;;5.72;;
74967;SDS011;63523;51.880;12.630;2024-01-15T00:11:17;14.68;;;4.68;;
74967;SDS011;63523;51.880;12.630;2024-01-15T00:13:42;19.35;;;5.38;;
74967;SDS011;63523;51.880;12.630;2024-01-15T00:16:08;16.23;;;5.50;;
74967;SDS011;63523;51.880;12.630;2024-01-15T00:18:33;13.63;;;5.20;;
74967;SDS011;63523;51.880;12.630;2024-01-15T00:20:58;18.10;;;6.10;;
74967;SDS011;63523;51.880;12.630;2024-01-15T00:23:23;16.07;;;4.90;;
74967;SDS011;63523;51.880;12.630;2024-01-15T00:25:50;15.17;;;4.50;;
74967;SDS011;63523;51.880;12.630;2024-01-15T00:28:16;15.32;;;5.15;;
74967;SDS011;63523;51.880;12.630;2024-01-15T00:30:41;14.60;;;4.80;;
74967;SDS011;63523;51.880;12.630;2024-01-15T00:33:07;11.07;;;4.80;;
74967;SDS011;63523;51.880;12.630;2024-01-15T00:35:32;14.57;;;5.13;;
74967;SDS011;63523;51.880;12.630;2024-01-15T00:37:57;17.33;;;5.23;;
74967;SDS011;63523;51.880;12.630;2024-01-15T00:40:23;15.83;;;5.60;;
74967;SDS011;63523;51.880;12.630;2024-01-15T00:42:50;13.88;;;4.57;;
74967;SDS011;63523;51.880;12.630;2024-01-15T00:45:15;14.40;;;5.13;;
74967;SDS011;63523;51.880;12.630;2024-01-15T00:47:41;16.00;;;5.63;;
74967;SDS011;63523;51.880;12.630;2024-01-15T00:50:06;14.27;;;5.20;;
74967;SDS011;63523;51.880;12.630;2024-01-15T00:52:31;16.10;;;5.43;;
74967;SDS011;63523;51.880;12.630;2024-01-15T00:54:57;17.53;;;5.40;;
74967;SDS011;63523;51.880;12.630;2024-01-15T00:57:22;15.93;;;5.03;;
74967;SDS011;63523;51.880;12.630;2024-01-15T00:59:47;17.70;;;5.03;;
74967;SDS011;63523;51.880;12.630;2024-01-15T01:02:13;16.00;;;4.93;;
74967;SDS011;63523;51.880;12.630;2024-01-15T01:04:38;16.13;;;5.70;;
74967;SDS011;63523;51.880;12.630;2024-01-15T01:07:03;17.63;;;5.90;;
74967;SDS011;63523;51.880;12.630;2024-01-15T01:09:29;18.23;;;6.00;;
74967;SDS011;63523;51.880;12.630;2024-01-15T01:11:55;18.47;;;5.83;;
74967;SDS011;63523;51.880;12.630;2024-01-15T01:14:21;17.67;;;5.33;;
74967;SDS011;63523;51.880;12.630;2024-01-15T01:16:46;17.48;;;5.88;;
74967;SDS011;63523;51.880;12.630;2024-01-15T01:19:12;22.10;;;7.10;;
74967;SDS011;63523;51.880;12.630;2024-01-15T01:21:37;20.43;;;5.87;;
74967;SDS011;63523;51.880;12.630;2024-01-15T01:24:02;16.93;;;5.87;;
74967;SDS011;63523;51.880;12.630;2024-01-15T01:26:28;17.08;;;5.50;;
74967;SDS011;63523;51.880;12.630;2024-01-15T01:28:53;17.50;;;5.33;;
74967;SDS011;63523;51.880;12.630;2024-01-15T01:31:19;16.67;;;5.97;;
74967;SDS011;63523;51.880;12.630;2024-01-15T01:33:44;17.30;;;5.40;;
74967;SDS011;63523;51.880;12.630;2024-01-15T01:36:09;16.70;;;5.50;;
74967;SDS011;63523;51.880;12.630;2024-01-15T01:38:35;16.53;;;5.93;;
74967;SDS011;63523;51.880;12.630;2024-01-15T01:41:01;19.75;;;5.97;;
74967;SDS011;63523;51.880;12.630;2024-01-15T01:43:26;19.17;;;6.57;;
74967;SDS011;63523;51.880;12.630;2024-01-15T01:45:52;17.83;;;5.83;;
74967;SDS011;63523;51.880;12.630;2024-01-15T01:48:17;17.33;;;5.27;;
74967;SDS011;63523;51.880;12.630;2024-01-15T01:50:44;20.98;;;6.53;;
74967;SDS011;63523;51.880;12.630;2024-01-15T01:53:09;14.57;;;5.65;;
74967;SDS011;63523;51.880;12.630;2024-01-15T01:55:35;19.30;;;5.97;;
74967;SDS011;63523;51.880;12.630;2024-01-15T01:58:01;17.50;;;6.32;;
74967;SDS011;63523;51.880;12.630;2024-01-15T02:00:27;17.07;;;5.77;;
74967;SDS011;63523;51.880;12.630;2024-01-15T02:02:52;17.50;;;5.77;;
74967;SDS011;63523;51.880;12.630;2024-01-15T02:05:18;18.57;;;5.50;;
74967;SDS011;63523;51.880;12.630;2024-01-15T02:07:45;16.23;;;5.38;;
74967;SDS011;63523;51.880;12.630;2024-01-15T02:10:10;19.53;;;6.13;;
74967;SDS011;63523;51.880;12.630;2024-01-15T02:12:35;19.87;;;6.27;;
74967;SDS011;63523;51.880;12.630;2024-01-15T02:15:00;15.67;;;5.73;;
74967;SDS011;63523;51.880;12.630;2024-01-15T02:17:26;20.37;;;5.73;;
74967;SDS011;63523;51.880;12.630;2024-01-15T02:19:51;17.07;;;5.70;;
74967;SDS011;63523;51.880;12.630;2024-01-15T02:22:16;19.33;;;6.37;;
74967;SDS011;63523;51.880;12.630;2024-01-15T02:24:41;17.80;;;5.80;;
74967;SDS011;63523;51.880;12.630;2024-01-15T02:27:07;18.33;;;5.00;;
74967;SDS011;63523;51.880;12.630;2024-01-15T02:29:32;16.48;;;5.20;;
74967;SDS011;63523;51.880;12.630;2024-01-15T02:31:58;13.13;;;4.55;;
74967;SDS011;63523;51.880;12.630;2024-01-15T02:34:23;14.00;;;4.87;;
74967;SDS011;63523;51.880;12.630;2024-01-15T02:36:48;14.53;;;4.80;;
74967;SDS011;63523;51.880;12.630;2024-01-15T02:39:14;16.30;;;5.97;;
74967;SDS011;63523;51.880;12.630;2024-01-15T02:41:39;18.00;;;6.27;;
74967;SDS011;63523;51.880;12.630;2024-01-15T02:44:04;15.53;;;5.50;;
74967;SDS011;63523;51.880;12.630;2024-01-15T02:46:29;17.73;;;6.50;;
74967;SDS011;63523;51.880;12.630;2024-01-15T02:48:55;19.63;;;6.43;;
74967;SDS011;63523;51.880;12.630;2024-01-15T02:51:20;16.23;;;5.53;;
74967;SDS011;63523;51.880;12.630;2024-01-15T02:53:45;20.70;;;6.47;;
74967;SDS011;63523;51.880;12.630;2024-01-15T02:56:10;24.10;;;7.13;;
74967;SDS011;63523;51.880;12.630;2024-01-15T02:58:36;21.83;;;6.70;;
74967;SDS011;63523;51.880;12.630;2024-01-15T03:01:01;20.45;;;6.95;;
74967;SDS011;63523;51.880;12.630;2024-01-15T03:03:26;25.93;;;6.97;;
74967;SDS011;63523;51.880;12.630;2024-01-15T03:05:51;22.57;;;7.43;;
74967;SDS011;63523;51.880;12.630;2024-01-15T03:08:17;21.93;;;6.70;;
74967;SDS011;63523;51.880;12.630;2024-01-15T03:10:42;18.27;;;6.43;;
74967;SDS011;63523;51.880;12.630;2024-01-15T03:13:08;20.50;;;7.10;;
74967;SDS011;63523;51.880;12.630;2024-01-15T03:15:33;24.13;;;6.63;;
74967;SDS011;63523;51.880;12.630;2024-01-15T03:17:58;24.63;;;7.68;;
74967;SDS011;63523;51.880;12.630;2024-01-15T03:20:23;23.17;;;6.68;;
74967;SDS011;63523;51.880;12.630;2024-01-15T03:22:49;22.53;;;7.37;;
74967;SDS011;63523;51.880;12.630;2024-01-15T03:25:14;24.57;;;7.33;;
74967;SDS011;63523;51.880;12.630;2024-01-15T03:27:39;23.20;;;6.53;;
74967;SDS011;63523;51.880;12.630;2024-01-15T03:30:05;24.93;;;7.07;;
74967;SDS011;63523;51.880;12.630;2024-01-15T03:32:30;28.02;;;7.03;;
74967;SDS011;63523;51.880;12.630;2024-01-15T03:34:56;20.67;;;6.57;;
74967;SDS011;63523;51.880;12.630;2024-01-15T03:37:21;22.63;;;7.00;;
74967;SDS011;63523;51.880;12.630;2024-01-15T03:39:46;21.83;;;6.50;;
74967;SDS011;63523;51.880;12.630;2024-01-15T03:42:11;24.03;;;7.10;;
74967;SDS011;63523;51.880;12.630;2024-01-15T03:44:37;23.57;;;6.30;;
74967;SDS011;63523;51.880;12.630;2024-01-15T03:47:02;24.13;;;6.77;;
74967;SDS011;63523;51.880;12.630;2024-01-15T03:49:27;18.80;;;6.23;;
74967;SDS011;63523;51.880;12.630;2024-01-15T03:51:53;23.53;;;6.90;;
74967;SDS011;63523;51.880;12.630;2024-01-15T03:54:18;16.33;;;5.97;;
74967;SDS011;63523;51.880;12.630;2024-01-15T03:56:43;20.20;;;6.53;;
74967;SDS011;63523;51.880;12.630;2024-01-15T03:59:08;19.17;;;5.80;;
74967;SDS011;63523;51.880;12.630;2024-01-15T04:01:34;17.20;;;5.17;;
74967;SDS011;63523;51.880;12.630;2024-01-15T04:03:59;18.50;;;5.80;;
74967;SDS011;63523;51.880;12.630;2024-01-15T04:06:24;19.47;;;5.47;;
74967;SDS011;63523;51.880;12.630;2024-01-15T04:08:49;16.43;;;5.50;;
74967;SDS011;63523;51.880;12.630;2024-01-15T04:11:15;16.47;;;5.93;;
74967;SDS011;63523;51.880;12.630;2024-01-15T04:13:40;16.13;;;5.57;;
74967;SDS011;63523;51.880;12.630;2024-01-15T04:16:05;22.33;;;5.75;;
74967;SDS011;63523;51.880;12.630;2024-01-15T04:18:30;17.17;;;4.97;;
74967;SDS011;63523;51.880;12.630;2024-01-15T04:20:56;17.75;;;5.18;;
74967;SDS011;63523;51.880;12.630;2024-01-15T04:23:21;16.25;;;4.97;;
74967;SDS011;63523;51.880;12.630;2024-01-15T04:25:46;16.35;;;5.47;;
74967;SDS011;63523;51.880;12.630;2024-01-15T04:28:12;15.97;;;4.93;;
74967;SDS011;63523;51.880;12.630;2024-01-15T04:30:37;15.67;;;4.67;;
74967;SDS011;63523;51.880;12.630;2024-01-15T04:33:03;14.83;;;4.47;;
74967;SDS011;63523;51.880;12.630;2024-01-15T04:35:28;15.73;;;5.07;;
74967;SDS011;63523;51.880;12.630;2024-01-15T04:37:53;14.23;;;4.30;;
74967;SDS011;63523;51.880;12.630;2024-01-15T04:40:19;16.27;;;5.00;;
74967;SDS011;63523;51.880;12.630;2024-01-15T04:42:44;14.20;;;4.47;;
74967;SDS011;63523;51.880;12.630;2024-01-15T04:45:10;16.85;;;4.78;;
74967;SDS011;63523;51.880;12.630;2024-01-15T04:47:36;15.50;;;4.50;;
74967;SDS011;63523;51.880;12.630;2024-01-15T04:50:02;12.97;;;3.97;;
74967;SDS011;63523;51.880;12.630;2024-01-15T04:52:29;16.10;;;4.63;;
74967;SDS011;63523;51.880;12.630;2024-01-15T04:54:54;14.87;;;4.37;;
74967;SDS011;63523;51.880;12.630;2024-01-15T04:57:19;15.03;;;4.60;;
74967;SDS011;63523;51.880;12.630;2024-01-15T04:59:44;13.90;;;4.25;;
74967;SDS011;63523;51.880;12.630;2024-01-15T05:02:10;16.85;;;4.68;;
74967;SDS011;63523;51.880;12.630;2024-01-15T05:04:35;14.93;;;4.27;;
74967;SDS011;63523;51.880;12.630;2024-01-15T05:07:00;17.37;;;4.57;;
74967;SDS011;63523;51.880;12.630;2024-01-15T05:09:26;13.13;;;4.43;;
74967;SDS011;63523;51.880;12.630;2024-01-15T05:11:51;14.73;;;4.27;;
74967;SDS011;63523;51.880;12.630;2024-01-15T05:14:16;14.83;;;3.80;;
74967;SDS011;63523;51.880;12.630;2024-01-15T05:16:48;13.63;;;3.93;;
74967;SDS011;63523;51.880;12.630;2024-01-15T05:19:14;12.68;;;3.83;;
74967;SDS011;63523;51.880;12.630;2024-01-15T05:21:39;14.30;;;4.13;;
74967;SDS011;63523;51.880;12.630;2024-01-15T05:24:05;12.20;;;3.90;;
74967;SDS011;63523;51.880;12.630;2024-01-15T05:26:30;10.60;;;3.60;;
74967;SDS011;63523;51.880;12.630;2024-01-15T05:28:55;11.43;;;3.13;;
74967;SDS011;63523;51.880;12.630;2024-01-15T05:31:21;12.20;;;3.67;;
74967;SDS011;63523;51.880;12.630;2024-01-15T05:33:46;10.47;;;3.17;;
74967;SDS011;63523;51.880;12.630;2024-01-15T05:36:11;11.73;;;3.23;;
74967;SDS011;63523;51.880;12.630;2024-01-15T05:38:37;11.70;;;3.63;;
74967;SDS011;63523;51.880;12.630;2024-01-15T05:41:02;10.47;;;3.13;;
74967;SDS011;63523;51.880;12.630;2024-01-15T05:43:27;9.00;;;2.90;;
74967;SDS011;63523;51.880;12.630;2024-01-15T05:45:53;12.43;;;3.43;;
74967;SDS011;63523;51.880;12.630;2024-01-15T05:48:18;9.85;;;3.05;;
74967;SDS011;63523;51.880;12.630;2024-01-15T05:50:43;13.80;;;3.53;;
74967;SDS011;63523;51.880;12.630;2024-01-15T05:53:09;11.63;;;3.60;;
74967;SDS011;63523;51.880;12.630;2024-01-15T05:55:35;13.60;;;3.63;;
74967;SDS011;63523;51.880;12.630;2024-01-15T05:58:01;10.27;;;3.22;;
74967;SDS011;63523;51.880;12.630;2024-01-15T06:00:26;11.13;;;3.10;;
74967;SDS011;63523;51.880;12.630;2024-01-15T06:03:00;11.00;;;3.35;;
74967;SDS011;63523;51.880;12.630;2024-01-15T06:05:25;9.47;;;2.77;;
74967;SDS011;63523;51.880;12.630;2024-01-15T06:07:50;10.30;;;3.00;;
74967;SDS011;63523;51.880;12.630;2024-01-15T06:10:16;11.13;;;2.93;;
74967;SDS011;63523;51.880;12.630;2024-01-15T06:12:43;9.73;;;3.10;;
74967;SDS011;63523;51.880;12.630;2024-01-15T06:15:09;9.52;;;2.67;;
74967;SDS011;63523;51.880;12.630;2024-01-15T06:17:35;11.53;;;3.07;;
74967;SDS011;63523;51.880;12.630;2024-01-15T06:20:00;8.73;;;2.40;;
74967;SDS011;63523;51.880;12.630;2024-01-15T06:22:25;8.43;;;2.70;;
74967;SDS011;63523;51.880;12.630;2024-01-15T06:24:50;8.70;;;2.67;;
74967;SDS011;63523;51.880;12.630;2024-01-15T06:27:16;9.40;;;2.50;;
74967;SDS011;63523;51.880;12.630;2024-01-15T06:29:44;12.90;;;2.87;;
74967;SDS011;63523;51.880;12.630;2024-01-15T06:32:10;10.13;;;2.95;;
74967;SDS011;63523;51.880;12.630;2024-01-15T06:34:36;11.17;;;2.57;;
74967;SDS011;63523;51.880;12.630;2024-01-15T06:37:01;11.80;;;2.70;;
74967;SDS011;63523;51.880;12.630;2024-01-15T06:39:26;11.37;;;2.77;;
74967;SDS011;63523;51.880;12.630;2024-01-15T06:41:52;10.60;;;2.90;;
74967;SDS011;63523;51.880;12.630;2024-01-15T06:44:17;8.07;;;2.00;;
74967;SDS011;63523;51.880;12.630;2024-01-15T06:46:42;9.37;;;2.30;;
74967;SDS011;63523;51.880;12.630;2024-01-15T06:49:08;9.00;;;2.17;;
74967;SDS011;63523;51.880;12.630;2024-01-15T06:51:34;7.53;;;2.10;;
74967;SDS011;63523;51.880;12.630;2024-01-15T06:53:59;9.70;;;2.35;;
74967;SDS011;63523;51.880;12.630;2024-01-15T06:56:24;7.60;;;1.93;;
74967;SDS011;63523;51.880;12.630;2024-01-15T06:58:50;7.97;;;1.97;;
74967;SDS011;63523;51.880;12.630;2024-01-15T07:01:15;6.73;;;1.70;;
74967;SDS011;63523;51.880;12.630;2024-01-15T07:03:40;8.70;;;1.80;;
74967;SDS011;63523;51.880;12.630;2024-01-15T07:06:06;7.50;;;1.90;;
74967;SDS011;63523;51.880;12.630;2024-01-15T07:08:31;9.63;;;2.40;;
74967;SDS011;63523;51.880;12.630;2024-01-15T07:10:56;9.40;;;2.20;;
74967;SDS011;63523;51.880;12.630;2024-01-15T07:13:21;7.07;;;1.93;;
74967;SDS011;63523;51.880;12.630;2024-01-15T07:15:47;9.10;;;2.13;;
74967;SDS011;63523;51.880;12.630;2024-01-15T07:18:12;9.50;;;2.10;;
74967;SDS011;63523;51.880;12.630;2024-01-15T07:20:37;8.80;;;1.77;;
74967;SDS011;63523;51.880;12.630;2024-01-15T07:23:03;8.53;;;1.90;;
74967;SDS011;63523;51.880;12.630;2024-01-15T07:25:29;8.17;;;1.87;;
74967;SDS011;63523;51.880;12.630;2024-01-15T07:27:54;6.80;;;1.80;;
74967;SDS011;63523;51.880;12.630;2024-01-15T07:30:19;9.83;;;2.00;;
74967;SDS011;63523;51.880;12.630;2024-01-15T07:32:46;9.70;;;1.80;;
74967;SDS011;63523;51.880;12.630;2024-01-15T07:35:12;11.50;;;2.33;;
74967;SDS011;63523;51.880;12.630;2024-01-15T07:37:37;10.93;;;2.37;;
74967;SDS011;63523;51.880;12.630;2024-01-15T07:40:02;7.80;;;2.10;;
74967;SDS011;63523;51.880;12.630;2024-01-15T07:42:29;7.72;;;2.17;;
74967;SDS011;63523;51.880;12.630;2024-01-15T07:44:54;8.97;;;2.20;;
74967;SDS011;63523;51.880;12.630;2024-01-15T07:47:20;8.57;;;2.20;;
74967;SDS011;63523;51.880;12.630;2024-01-15T07:49:45;7.60;;;1.87;;
74967;SDS011;63523;51.880;12.630;2024-01-15T07:52:10;8.03;;;2.20;;
74967;SDS011;63523;51.880;12.630;2024-01-15T07:54:37;8.55;;;2.40;;
74967;SDS011;63523;51.880;12.630;2024-01-15T07:57:03;10.07;;;2.70;;
74967;SDS011;63523;51.880;12.630;2024-01-15T07:59:28;10.02;;;2.53;;
74967;SDS011;63523;51.880;12.630;2024-01-15T08:01:54;7.87;;;2.33;;
74967;SDS011;63523;51.880;12.630;2024-01-15T08:04:19;9.67;;;2.33;;
74967;SDS011;63523;51.880;12.630;2024-01-15T08:06:45;9.07;;;1.98;;
74967;SDS011;63523;51.880;12.630;2024-01-15T08:09:11;6.83;;;1.80;;
74967;SDS011;63523;51.880;12.630;2024-01-15T08:11:40;8.15;;;2.42;;
74967;SDS011;63523;51.880;12.630;2024-01-15T08:14:09;11.13;;;2.47;;
74967;SDS011;63523;51.880;12.630;2024-01-15T08:16:35;8.40;;;2.47;;
74967;SDS011;63523;51.880;12.630;2024-01-15T08:19:01;10.20;;;2.00;;
74967;SDS011;63523;51.880;12.630;2024-01-15T08:21:26;7.65;;;2.05;;
74967;SDS011;63523;51.880;12.630;2024-01-15T08:23:54;6.83;;;1.57;;
74967;SDS011;63523;51.880;12.630;2024-01-15T08:26:21;10.90;;;2.30;;
74967;SDS011;63523;51.880;12.630;2024-01-15T08:28:46;7.53;;;1.70;;
74967;SDS011;63523;51.880;12.630;2024-01-15T08:31:12;8.10;;;1.90;;
74967;SDS011;63523;51.880;12.630;2024-01-15T08:33:37;7.32;;;2.00;;
74967;SDS011;63523;51.880;12.630;2024-01-15T08:36:03;6.83;;;1.57;;
74967;SDS011;63523;51.880;12.630;2024-01-15T08:38:28;10.40;;;2.03;;
74967;SDS011;63523;51.880;12.630;2024-01-15T08:40:53;5.73;;;1.20;;
74967;SDS011;63523;51.880;12.630;2024-01-15T08:43:21;7.57;;;1.70;;
74967;SDS011;63523;51.880;12.630;2024-01-15T08:45:46;7.90;;;1.70;;
74967;SDS011;63523;51.880;12.630;2024-01-15T08:48:13;9.57;;;2.20;;
74967;SDS011;63523;51.880;12.630;2024-01-15T08:50:38;9.73;;;2.50;;
74967;SDS011;63523;51.880;12.630;2024-01-15T08:53:03;10.95;;;2.88;;
74967;SDS011;63523;51.880;12.630;2024-01-15T08:55:29;8.37;;;1.80;;
74967;SDS011;63523;51.880;12.630;2024-01-15T08:57:54;8.87;;;2.10;;
74967;SDS011;63523;51.880;12.630;2024-01-15T09:00:19;6.00;;;1.73;;
74967;SDS011;63523;51.880;12.630;2024-01-15T09:02:45;8.87;;;2.23;;
74967;SDS011;63523;51.880;12.630;2024-01-15T09:05:10;6.77;;;1.67;;
74967;SDS011;63523;51.880;12.630;2024-01-15T09:07:35;7.10;;;1.90;;
74967;SDS011;63523;51.880;12.630;2024-01-15T09:10:01;7.73;;;1.80;;
74967;SDS011;63523;51.880;12.630;2024-01-15T09:12:26;7.57;;;1.93;;
74967;SDS011;63523;51.880;12.630;2024-01-15T09:14:52;8.30;;;1.80;;
74967;SDS011;63523;51.880;12.630;2024-01-15T09:17:18;6.55;;;1.70;;
74967;SDS011;63523;51.880;12.630;2024-01-15T09:19:44;7.53;;;1.98;;
74967;SDS011;63523;51.880;12.630;2024-01-15T09:22:10;5.83;;;1.77;;
74967;SDS011;63523;51.880;12.630;2024-01-15T09:24:39;8.50;;;1.77;;
74967;SDS011;63523;51.880;12.630;2024-01-15T09:27:05;7.03;;;1.95;;
74967;SDS011;63523;51.880;12.630;2024-01-15T09:29:30;6.97;;;1.50;;
74967;SDS011;63523;51.880;12.630;2024-01-15T09:31:56;7.80;;;1.98;;
74967;SDS011;63523;51.880;12.630;2024-01-15T09:34:22;10.27;;;1.40;;
74967;SDS011;63523;51.880;12.630;2024-01-15T09:36:47;12.40;;;1.70;;
74967;SDS011;63523;51.880;12.630;2024-01-15T09:39:13;8.57;;;2.47;;
74967;SDS011;63523;51.880;12.630;2024-01-15T09:41:40;7.32;;;1.60;;
74967;SDS011;63523;51.880;12.630;2024-01-15T09:44:06;5.83;;;1.37;;
74967;SDS011;63523;51.880;12.630;2024-01-15T09:46:32;5.32;;;1.00;;
74967;SDS011;63523;51.880;12.630;2024-01-15T09:48:58;5.63;;;1.30;;
74967;SDS011;63523;51.880;12.630;2024-01-15T09:51:24;4.80;;;1.10;;
74967;SDS011;63523;51.880;12.630;2024-01-15T09:53:49;5.25;;;1.17;;
74967;SDS011;63523;51.880;12.630;2024-01-15T09:56:15;6.17;;;1.10;;
74967;SDS011;63523;51.880;12.630;2024-01-15T09:58:41;9.13;;;1.27;;
74967;SDS011;63523;51.880;12.630;2024-01-15T10:01:07;8.30;;;1.10;;
74967;SDS011;63523;51.880;12.630;2024-01-15T10:03:33;4.38;;;0.85;;
74967;SDS011;63523;51.880;12.630;2024-01-15T10:05:58;5.70;;;1.43;;
74967;SDS011;63523;51.880;12.630;2024-01-15T10:08:24;8.27;;;1.50;;
74967;SDS011;63523;51.880;12.630;2024-01-15T10:10:50;5.40;;;0.85;;
74967;SDS011;63523;51.880;12.630;2024-01-15T10:13:15;7.77;;;1.60;;
74967;SDS011;63523;51.880;12.630;2024-01-15T10:15:41;5.93;;;1.23;;
74967;SDS011;63523;51.880;12.630;2024-01-15T10:18:07;6.85;;;1.45;;
74967;SDS011;63523;51.880;12.630;2024-01-15T10:20:33;8.00;;;1.63;;
74967;SDS011;63523;51.880;12.630;2024-01-15T10:22:58;8.30;;;1.40;;
74967;SDS011;63523;51.880;12.630;2024-01-15T10:25:24;5.47;;;1.03;;
74967;SDS011;63523;51.880;12.630;2024-01-15T10:28:00;6.68;;;1.33;;
74967;SDS011;63523;51.880;12.630;2024-01-15T10:30:26;5.18;;;1.38;;
74967;SDS011;63523;51.880;12.630;2024-01-15T10:32:58;5.07;;;1.00;;
74967;SDS011;63523;51.880;12.630;2024-01-15T10:35:32;8.27;;;1.40;;
74967;SDS011;63523;51.880;12.630;2024-01-15T10:37:59;5.72;;;1.50;;
74967;SDS011;63523;51.880;12.630;2024-01-15T10:40:25;9.77;;;2.67;;
74967;SDS011;63523;51.880;12.630;2024-01-15T10:42:50;9.50;;;2.13;;
74967;SDS011;63523;51.880;12.630;2024-01-15T10:45:16;16.13;;;4.20;;
74967;SDS011;63523;51.880;12.630;2024-01-15T10:47:42;18.33;;;5.75;;
74967;SDS011;63523;51.880;12.630;2024-01-15T10:50:07;12.83;;;3.67;;
74967;SDS011;63523;51.880;12.630;2024-01-15T10:52:35;6.60;;;1.60;;
74967;SDS011;63523;51.880;12.630;2024-01-15T10:55:08;9.43;;;2.15;;
74967;SDS011;63523;51.880;12.630;2024-01-15T10:57:52;15.50;;;3.93;;
74967;SDS011;63523;51.880;12.630;2024-01-15T11:00:24;31.33;;;10.05;;
74967;SDS011;63523;51.880;12.630;2024-01-15T11:03:09;22.65;;;6.60;;
74967;SDS011;63523;51.880;12.630;2024-01-15T11:05:56;19.83;;;4.93;;
74967;SDS011;63523;51.880;12.630;2024-01-15T11:08:21;20.63;;;5.27;;
74967;SDS011;63523;51.880;12.630;2024-01-15T11:10:54;19.08;;;6.30;;
74967;SDS011;63523;51.880;12.630;2024-01-15T11:16:05;9.05;;;2.40;;
74967;SDS011;63523;51.880;12.630;2024-01-15T11:18:36;7.93;;;1.85;;
74967;SDS011;63523;51.880;12.630;2024-01-15T11:24:41;15.93;;;4.22;;
74967;SDS011;63523;51.880;12.630;2024-01-15T11:27:09;24.60;;;7.27;;
74967;SDS011;63523;51.880;12.630;2024-01-15T11:29:35;15.30;;;4.03;;
74967;SDS011;63523;51.880;12.630;2024-01-15T11:32:02;34.93;;;9.37;;
74967;SDS011;63523;51.880;12.630;2024-01-15T11:37:17;13.38;;;3.53;;
74967;SDS011;63523;51.880;12.630;2024-01-15T11:39:43;10.43;;;2.95;;
74967;SDS011;63523;51.880;12.630;2024-01-15T11:42:09;12.70;;;3.03;;
74967;SDS011;63523;51.880;12.630;2024-01-15T11:44:36;7.55;;;1.60;;
74967;SDS011;63523;51.880;12.630;2024-01-15T11:47:02;5.35;;;1.13;;
74967;SDS011;63523;51.880;12.630;2024-01-15T11:52:12;5.00;;;0.60;;
74967;SDS011;63523;51.880;12.630;2024-01-15T11:54:43;5.10;;;0.80;;
74967;SDS011;63523;51.880;12.630;2024-01-15T11:57:18;5.32;;;0.73;;
74967;SDS011;63523;51.880;12.630;2024-01-15T11:59:50;3.60;;;0.60;;
74967;SDS011;63523;51.880;12.630;2024-01-15T12:02:16;7.03;;;1.10;;
74967;SDS011;63523;51.880;12.630;2024-01-15T12:04:41;5.17;;;0.90;;
74967;SDS011;63523;51.880;12.630;2024-01-15T12:07:06;5.07;;;0.90;;
74967;SDS011;63523;51.880;12.630;2024-01-15T12:09:31;3.97;;;0.60;;
74967;SDS011;63523;51.880;12.630;2024-01-15T12:12:03;5.37;;;0.87;;
74967;SDS011;63523;51.880;12.630;2024-01-15T12:14:36;11.82;;;2.38;;
74967;SDS011;63523;51.880;12.630;2024-01-15T12:17:03;9.82;;;1.75;;
74967;SDS011;63523;51.880;12.630;2024-01-15T12:19:28;18.43;;;3.87;;
74967;SDS011;63523;51.880;12.630;2024-01-15T12:21:54;7.67;;;1.70;;
74967;SDS011;63523;51.880;12.630;2024-01-15T12:24:19;7.60;;;1.10;;
74967;SDS011;63523;51.880;12.630;2024-01-15T12:26:45;4.77;;;0.60;;
74967;SDS011;63523;51.880;12.630;2024-01-15T12:29:10;5.93;;;0.90;;
74967;SDS011;63523;51.880;12.630;2024-01-15T12:31:36;4.20;;;0.50;;
74967;SDS011;63523;51.880;12.630;2024-01-15T12:34:01;4.13;;;0.47;;
74967;SDS011;63523;51.880;12.630;2024-01-15T12:36:26;5.70;;;0.50;;
74967;SDS011;63523;51.880;12.630;2024-01-15T12:38:58;5.80;;;0.40;;
74967;SDS011;63523;51.880;12.630;2024-01-15T12:41:24;3.70;;;0.47;;
74967;SDS011;63523;51.880;12.630;2024-01-15T12:43:49;2.53;;;0.47;;
74967;SDS011;63523;51.880;12.630;2024-01-15T12:46:15;4.87;;;0.60;;
74967;SDS011;63523;51.880;12.630;2024-01-15T12:48:40;3.03;;;0.33;;
74967;SDS011;63523;51.880;12.630;2024-01-15T12:51:06;3.53;;;0.20;;
74967;SDS011;63523;51.880;12.630;2024-01-15T12:53:31;5.47;;;0.40;;
74967;SDS011;63523;51.880;12.630;2024-01-15T12:55:56;4.53;;;0.30;;
74967;SDS011;63523;51.880;12.630;2024-01-15T12:58:22;3.20;;;0.30;;
74967;SDS011;63523;51.880;12.630;2024-01-15T13:00:47;5.63;;;0.70;;
74967;SDS011;63523;51.880;12.630;2024-01-15T13:03:12;3.63;;;0.30;;
74967;SDS011;63523;51.880;12.630;2024-01-15T13:05:38;2.90;;;0.20;;
74967;SDS011;63523;51.880;12.630;2024-01-15T13:08:05;4.25;;;0.50;;
74967;SDS011;63523;51.880;12.630;2024-01-15T13:10:31;2.20;;;0.30;;
74967;SDS011;63523;51.880;12.630;2024-01-15T13:12:56;6.73;;;0.60;;
74967;SDS011;63523;51.880;12.630;2024-01-15T13:15:22;4.60;;;0.60;;
74967;SDS011;63523;51.880;12.630;2024-01-15T13:17:47;5.80;;;0.63;;
74967;SDS011;63523;51.880;12.630;2024-01-15T13:20:12;3.97;;;0.27;;
74967;SDS011;63523;51.880;12.630;2024-01-15T13:22:37;2.47;;;0.23;;
74967;SDS011;63523;51.880;12.630;2024-01-15T13:25:04;4.55;;;0.30;;
74967;SDS011;63523;51.880;12.630;2024-01-15T13:27:32;4.17;;;0.20;;
74967;SDS011;63523;51.880;12.630;2024-01-15T13:29:57;3.43;;;0.20;;
74967;SDS011;63523;51.880;12.630;2024-01-15T13:32:25;3.53;;;0.20;;
74967;SDS011;63523;51.880;12.630;2024-01-15T13:34:51;5.70;;;0.20;;
74967;SDS011;63523;51.880;12.630;2024-01-15T13:37:16;3.53;;;0.27;;
74967;SDS011;63523;51.880;12.630;2024-01-15T13:39:42;2.75;;;0.20;;
74967;SDS011;63523;51.880;12.630;2024-01-15T13:42:07;3.57;;;0.20;;
74967;SDS011;63523;51.880;12.630;2024-01-15T13:44:32;3.20;;;0.13;;
74967;SDS011;63523;51.880;12.630;2024-01-15T13:46:57;4.10;;;0.47;;
74967;SDS011;63523;51.880;12.630;2024-01-15T13:49:23;6.17;;;0.30;;
74967;SDS011;63523;51.880;12.630;2024-01-15T13:51:49;3.57;;;0.20;;
74967;SDS011;63523;51.880;12.630;2024-01-15T13:54:14;4.07;;;0.43;;
74967;SDS011;63523;51.880;12.630;2024-01-15T13:56:40;3.67;;;0.10;;
74967;SDS011;63523;51.880;12.630;2024-01-15T13:59:05;1.70;;;0.10;;
74967;SDS011;63523;51.880;12.630;2024-01-15T14:01:30;3.77;;;0.10;;
74967;SDS011;63523;51.880;12.630;2024-01-15T14:03:56;1.98;;;0.20;;
74967;SDS011;63523;51.880;12.630;2024-01-15T14:06:21;3.97;;;0.20;;
74967;SDS011;63523;51.880;12.630;2024-01-15T14:08:46;3.33;;;0.10;;
74967;SDS011;63523;51.880;12.630;2024-01-15T14:11:12;3.47;;;0.20;;
74967;SDS011;63523;51.880;12.630;2024-01-15T14:13:37;3.07;;;0.13;;
74967;SDS011;63523;51.880;12.630;2024-01-15T14:16:02;3.77;;;0.20;;
74967;SDS011;63523;51.880;12.630;2024-01-15T14:18:28;3.47;;;0.10;;
74967;SDS011;63523;51.880;12.630;2024-01-15T14:20:53;3.90;;;0.13;;
74967;SDS011;63523;51.880;12.630;2024-01-15T14:23:19;3.13;;;0.20;;
74967;SDS011;63523;51.880;12.630;2024-01-15T14:25:44;7.65;;;1.00;;
74967;SDS011;63523;51.880;12.630;2024-01-15T14:28:10;5.17;;;0.50;;
74967;SDS011;63523;51.880;12.630;2024-01-15T14:30:35;2.47;;;0.20;;
74967;SDS011;63523;51.880;12.630;2024-01-15T14:33:01;3.80;;;0.13;;